^^
Saratoga-Weather Station Historical Data
Daily Summary for August 5, 2020 Units:  English    Metric   Both
Daily Weekly Monthly Yearly Custom
  High: Low: Average:
Temperature: 85.5 °F 52 °F 68.4 °F
Dew Point: 56.7 °F 48.2 °F 51.1 °F
Humidity: 90% 28% 59%
Wind Speed: 8.9mph 0mph 0.9mph
Wind Gust: 10mph - -
Wind- - ESE
Pressure: 30.1 in 30 in -
Precipitation: 0 in    
Historical Graphs
 
 
Tabular Data for August 5, 2020
Time Temperature Dew Point Pressure Wind Wind Speed Wind Gust Humidity Rainfall Rate (Hourly) solar
00:00 59.2 °F 50.5 °F 30 in Calm     73% 0 in 0 W/m2
00:05 59 °F 50.7 °F 30 in Calm     74% 0 in 0 W/m2
00:10 58.8 °F 50.2 °F 30 in Calm     73% 0 in 0 W/m2
00:15 58.6 °F 50 °F 30 in Calm     73% 0 in 0 W/m2
00:20 58.5 °F 49.8 °F 30 in Calm     73% 0 in 0 W/m2
00:25 58.5 °F 50.2 °F 30 in Calm     74% 0 in 0 W/m2
00:30 58.3 °F 50 °F 30 in Calm     74% 0 in 0 W/m2
00:35 58.3 °F 50 °F 30 in Calm     74% 0 in 0 W/m2
00:40 58.1 °F 49.8 °F 30 in Calm     74% 0 in 0 W/m2
00:45 58.1 °F 49.8 °F 30 in Calm     74% 0 in 0 W/m2
00:50 57.9 °F 50 °F 30 in Calm     75% 0 in 0 W/m2
00:55 57.9 °F 50 °F 30 in Calm     75% 0 in 0 W/m2
01:00 57.7 °F 50.2 °F 30 in Calm     76% 0 in 0 W/m2
01:05 57.7 °F 50.2 °F 30 in Calm     76% 0 in 0 W/m2
01:10 57.6 °F 50 °F 30 in Calm     76% 0 in 0 W/m2
01:15 57.6 °F 50.4 °F 30 in Calm     77% 0 in 0 W/m2
01:20 57.4 °F 50.2 °F 30 in Calm     77% 0 in 0 W/m2
01:25 57.2 °F 50.4 °F 30 in Calm     78% 0 in 0 W/m2
01:30 57 °F 50.2 °F 30 in Calm     78% 0 in 0 W/m2
01:35 57 °F 50.2 °F 30 in Calm     78% 0 in 0 W/m2
01:40 56.8 °F 50 °F 30 in Calm     78% 0 in 0 W/m2
01:45 56.8 °F 50.4 °F 30 in Calm     79% 0 in 0 W/m2
01:50 56.7 °F 50.2 °F 30 in Calm     79% 0 in 0 W/m2
01:55 56.5 °F 50 °F 30 in Calm     79% 0 in 0 W/m2
02:00 56.3 °F 49.8 °F 30 in Calm     79% 0 in 0 W/m2
02:05 56.1 °F 50 °F 30 in Calm     80% 0 in 0 W/m2
02:10 55.9 °F 49.5 °F 30 in Calm     79% 0 in 0 W/m2
02:15 55.8 °F 49.3 °F 30 in Calm     79% 0 in 0 W/m2
02:20 55.8 °F 49.6 °F 30 in Calm     80% 0 in 0 W/m2
02:26 55.9 °F 49.8 °F 30 in Calm     80% 0 in 0 W/m2
02:31 55.8 °F 49.6 °F 30 in Calm     80% 0 in 0 W/m2
02:36 55.8 °F 49.6 °F 30 in Calm     80% 0 in 0 W/m2
02:41 55.6 °F 49.5 °F 30 in Calm     80% 0 in 0 W/m2
02:46 55.4 °F 49.3 °F 30 in Calm     80% 0 in 0 W/m2
02:51 55.2 °F 49.5 °F 30 in Calm     81% 0 in 0 W/m2
02:56 55 °F 49.3 °F 30 in Calm     81% 0 in 0 W/m2
03:01 54.9 °F 49.1 °F 30 in Calm     81% 0 in 0 W/m2
03:06 54.7 °F 49.3 °F 30 in Calm     82% 0 in 0 W/m2
03:11 54.5 °F 49.1 °F 30 in Calm     82% 0 in 0 W/m2
03:16 54.3 °F 49.3 °F 30 in Calm     83% 0 in 0 W/m2
03:21 54.1 °F 49.1 °F 30 in Calm     83% 0 in 0 W/m2
03:26 54.1 °F 49.1 °F 30 in Calm     83% 0 in 0 W/m2
03:31 54.1 °F 49.1 °F 30 in Calm     83% 0 in 0 W/m2
03:36 54 °F 48.9 °F 30 in Calm     83% 0 in 0 W/m2
03:41 54 °F 49.3 °F 30 in Calm   1 mph 84% 0 in 0 W/m2
03:46 54 °F 49.3 °F 30 in Calm     84% 0 in 0 W/m2
03:51 53.8 °F 49.1 °F 30 in Calm     84% 0 in 0 W/m2
03:57 53.8 °F 49.1 °F 30 in Calm     84% 0 in 0 W/m2
04:02 53.8 °F 49.1 °F 30 in Calm   1 mph 84% 0 in 0 W/m2
04:07 53.8 °F 49.1 °F 30 in Calm   1 mph 84% 0 in 0 W/m2
04:12 53.8 °F 49.1 °F 30 in Calm     84% 0 in 0 W/m2
04:17 53.6 °F 48.9 °F 30 in Calm   1 mph 84% 0 in 0 W/m2
04:22 53.4 °F 48.7 °F 30 in Calm     84% 0 in 0 W/m2
04:27 53.4 °F 48.7 °F 30 in Calm   1 mph 84% 0 in 0 W/m2
04:32 53.2 °F 48.6 °F 30 in Calm     84% 0 in 0 W/m2
04:37 53.2 °F 48.6 °F 30 in Calm     84% 0 in 0 W/m2
04:42 53.1 °F 48.4 °F 30 in Calm     84% 0 in 0 W/m2
04:47 53.1 °F 48.4 °F 30 in Calm     84% 0 in 0 W/m2
04:52 52.9 °F 48.2 °F 30 in Calm     84% 0 in 0 W/m2
04:57 52.9 °F 48.2 °F 30 in Calm     84% 0 in 0 W/m2
05:02 52.7 °F 48.4 °F 30 in Calm     85% 0 in 0 W/m2
05:07 52.7 °F 48.6 °F 30 in Calm     86% 0 in 0 W/m2
05:12 52.5 °F 48.4 °F 30 in Calm     86% 0 in 0 W/m2
05:17 52.5 °F 48.7 °F 30 in Calm     87% 0 in 0 W/m2
05:22 52.3 °F 48.6 °F 30 in Calm   1 mph 87% 0 in 0 W/m2
05:27 52.5 °F 48.7 °F 30 in Calm     87% 0 in 0 W/m2
05:32 52.5 °F 48.7 °F 30 in Calm     87% 0 in 0 W/m2
05:37 52.5 °F 48.7 °F 30 in Calm     87% 0 in 0 W/m2
05:42 52.5 °F 48.7 °F 30 in Calm     87% 0 in 0 W/m2
05:47 52.3 °F 48.6 °F 30 in Calm     87% 0 in 0 W/m2
05:52 52.3 °F 48.9 °F 30 in Calm     88% 0 in 0 W/m2
05:57 52.3 °F 48.9 °F 30 in Calm     88% 0 in 0 W/m2
06:02 52.2 °F 48.7 °F 30 in Calm     88% 0 in 0 W/m2
06:07 52.2 °F 49.1 °F 30 in Calm     89% 0 in 0 W/m2
06:12 52 °F 48.9 °F 30 in Calm     89% 0 in 0 W/m2
06:17 52 °F 49.1 °F 30 in Calm     90% 0 in 5 W/m2
06:22 52 °F 49.1 °F 30 in Calm     90% 0 in 7 W/m2
06:27 52.2 °F 49.3 °F 30 in Calm     90% 0 in 9 W/m2
06:32 52.2 °F 49.3 °F 30 in Calm     90% 0 in 11 W/m2
06:37 52.2 °F 49.3 °F 30 in Calm     90% 0 in 12 W/m2
06:42 52.2 °F 49.3 °F 30 in Calm     90% 0 in 14 W/m2
06:47 52.2 °F 49.3 °F 30 in Calm     90% 0 in 16 W/m2
06:52 52.2 °F 49.3 °F 30 in Calm     90% 0 in 18 W/m2
06:57 52.2 °F 49.3 °F 30 in Calm     90% 0 in 21 W/m2
07:02 52.3 °F 49.5 °F 30 in Calm     90% 0 in 23 W/m2
07:07 52.5 °F 49.6 °F 30 in Calm     90% 0 in 25 W/m2
07:12 52.7 °F 49.8 °F 30 in Calm     90% 0 in 26 W/m2
07:17 52.9 °F 50 °F 30 in Calm     90% 0 in 26 W/m2
07:22 52.9 °F 50 °F 30 in Calm     90% 0 in 28 W/m2
07:27 53.2 °F 50 °F 30 in Calm     89% 0 in 30 W/m2
07:32 53.4 °F 50.2 °F 30 in Calm     89% 0 in 32 W/m2
07:37 53.8 °F 50.4 °F 30 in Calm     88% 0 in 33 W/m2
07:42 54 °F 50.5 °F 30 in Calm     88% 0 in 33 W/m2
07:47 54.3 °F 50.5 °F 30 in Calm     87% 0 in 33 W/m2
07:52 54.7 °F 50.9 °F 30 in Calm     87% 0 in 39 W/m2
07:57 55 °F 50.9 °F 30 in Calm     86% 0 in 42 W/m2
08:02 55.6 °F 50.9 °F 30 in ESE 0.9 mph 2 mph 84% 0 in 53 W/m2
08:07 55.9 °F 50.5 °F 30 in ESE 0.9 mph 2 mph 82% 0 in 95 W/m2
08:12 56.8 °F 51.1 °F 30 in East 0.9 mph 2 mph 81% 0 in 47 W/m2
08:17 57.6 °F 50.7 °F 30 in Calm   1 mph 78% 0 in 44 W/m2
08:22 58.3 °F 51.1 °F 30 in Calm   2 mph 77% 0 in 44 W/m2
08:27 59.2 °F 50.9 °F 30 in Calm     74% 0 in 46 W/m2
08:32 59.7 °F 51.4 °F 30 in Calm   1 mph 74% 0 in 46 W/m2
08:37 60.3 °F 52 °F 30 in ENE 0.9 mph 2 mph 74% 0 in 46 W/m2
08:42 61.2 °F 52 °F 30.1 in East 0.9 mph 1 mph 72% 0 in 47 W/m2
08:47 61.5 °F 52.3 °F 30 in East 2 mph 3 mph 72% 0 in 47 W/m2
08:52 62.1 °F 52.5 °F 30.1 in East 0.9 mph 2 mph 71% 0 in 47 W/m2
08:57 62.4 °F 52.9 °F 30.1 in Calm   2 mph 71% 0 in 53 W/m2
09:02 63 °F 53.1 °F 30 in East 2.9 mph 3 mph 70% 0 in 174 W/m2
09:07 63.3 °F 53.1 °F 30.1 in NE 0.9 mph 2 mph 69% 0 in 323 W/m2
09:12 63.3 °F 53.1 °F 30.1 in NNE 0.9 mph 3 mph 69% 0 in 366 W/m2
09:17 63.7 °F 53.8 °F 30.1 in East 0.9 mph 2 mph 70% 0 in 381 W/m2
09:22 63.7 °F 53.8 °F 30.1 in NE 0.9 mph 3 mph 70% 0 in 397 W/m2
09:27 64 °F 54.1 °F 30 in Calm   3 mph 70% 0 in 410 W/m2
09:32 64.2 °F 53.8 °F 30 in Calm   1 mph 69% 0 in 425 W/m2
09:37 64.6 °F 54.1 °F 30 in NE 0.9 mph 3 mph 69% 0 in 438 W/m2
09:42 64.8 °F 54 °F 30 in NE 2 mph 4 mph 68% 0 in 454 W/m2
09:47 64.9 °F 54.1 °F 30.1 in ENE 2 mph 4 mph 68% 0 in 443 W/m2
09:53 65.1 °F 54.3 °F 30 in ESE 2 mph 3 mph 68% 0 in 56 W/m2
09:58 65.7 °F 54.9 °F 30 in ENE 0.9 mph 3 mph 68% 0 in 163 W/m2
10:03 66.4 °F 55.6 °F 30 in ENE 2 mph 2 mph 68% 0 in 501 W/m2
10:08 66.7 °F 55 °F 30 in Calm   3 mph 66% 0 in 520 W/m2
10:13 67.3 °F 55.6 °F 30 in ENE 2 mph 4 mph 66% 0 in 531 W/m2
10:18 67.6 °F 55.9 °F 30 in ENE 2 mph 2 mph 66% 0 in 543 W/m2
10:23 68 °F 55.8 °F 30 in ESE 2 mph 2 mph 65% 0 in 552 W/m2
10:28 68.2 °F 55 °F 30 in NE 0.9 mph 3 mph 63% 0 in 570 W/m2
10:33 68.4 °F 55.2 °F 30 in ENE 2.9 mph 4 mph 63% 0 in 580 W/m2
10:38 69.1 °F 55.9 °F 30 in Calm   1 mph 63% 0 in 591 W/m2
10:43 69.6 °F 55.9 °F 30 in ESE 2 mph 2 mph 62% 0 in 605 W/m2
10:48 70.2 °F 56.1 °F 30 in ENE 2 mph 3 mph 61% 0 in 617 W/m2
10:53 70.3 °F 56.3 °F 30 in North 0.9 mph 3 mph 61% 0 in 629 W/m2
10:58 70.9 °F 56.3 °F 30 in East 0.9 mph 6 mph 60% 0 in 638 W/m2
11:03 71.2 °F 56.7 °F 30 in ESE 0.9 mph 2 mph 60% 0 in 649 W/m2
11:08 71.6 °F 55.6 °F 30 in NE 4 mph 5 mph 57% 0 in 661 W/m2
11:13 71.4 °F 56.3 °F 30 in East 2 mph 3 mph 59% 0 in 670 W/m2
11:18 72 °F 55.9 °F 30 in SE 2 mph 4 mph 57% 0 in 680 W/m2
11:23 72.1 °F 56.1 °F 30 in East 2.9 mph 6 mph 57% 0 in 689 W/m2
11:28 72.7 °F 56.1 °F 30 in NE 2 mph 2 mph 56% 0 in 698 W/m2
11:33 72.9 °F 55.2 °F 30 in NE 2 mph 3 mph 54% 0 in 705 W/m2
11:38 73.2 °F 56.1 °F 30 in ESE 2 mph 3 mph 55% 0 in 717 W/m2
11:43 73.9 °F 56.3 °F 30 in SE 2 mph 3 mph 54% 0 in 722 W/m2
11:48 74.3 °F 56.1 °F 30 in ENE 4 mph 5 mph 53% 0 in 735 W/m2
11:53 74.7 °F 55.4 °F 30 in ENE 0.9 mph 4 mph 51% 0 in 738 W/m2
11:58 75 °F 55.6 °F 30 in East 0.9 mph 3 mph 51% 0 in 752 W/m2
12:03 75.6 °F 53.2 °F 30 in ESE 0.9 mph 2 mph 46% 0 in 754 W/m2
12:08 75.9 °F 53.6 °F 30 in Calm   4 mph 46% 0 in 766 W/m2
12:13 76.5 °F 53.6 °F 30 in NE 4 mph 5 mph 45% 0 in 775 W/m2
12:18 76.8 °F 54.5 °F 30 in East 2 mph 4 mph 46% 0 in 782 W/m2
12:23 77.4 °F 53.1 °F 30 in ENE 2 mph 7 mph 43% 0 in 788 W/m2
12:28 77.4 °F 53.8 °F 30 in East 8.9 mph 9 mph 44% 0 in 795 W/m2
12:33 77.2 °F 52.3 °F 30 in ENE 2.9 mph 6 mph 42% 0 in 793 W/m2
12:38 77.4 °F 52.5 °F 30 in ENE 2.9 mph 3 mph 42% 0 in 798 W/m2
12:43 77.7 °F 52.2 °F 30 in NNW 2 mph 4 mph 41% 0 in 809 W/m2
12:48 77.9 °F 52.3 °F 30 in ENE 4 mph 9 mph 41% 0 in 817 W/m2
12:53 78.1 °F 51.8 °F 30 in ENE 4 mph 6 mph 40% 0 in 817 W/m2
12:58 78.1 °F 51.8 °F 30 in ENE 4 mph 5 mph 40% 0 in 821 W/m2
13:03 78.3 °F 51.3 °F 30 in East 2 mph 4 mph 39% 0 in 823 W/m2
13:08 78.4 °F 51.4 °F 30 in ENE 2 mph 4 mph 39% 0 in 831 W/m2
13:13 79 °F 52 °F 30 in NNE 4.9 mph 6 mph 39% 0 in 830 W/m2
13:18 79.2 °F 50.7 °F 30 in Calm   7 mph 37% 0 in 844 W/m2
13:23 79 °F 51.3 °F 30 in ENE 2.9 mph 6 mph 38% 0 in 838 W/m2
13:28 79 °F 50.5 °F 30 in East 4 mph 4 mph 37% 0 in 835 W/m2
13:34 79.2 °F 52.2 °F 30 in ENE 2 mph 10 mph 39% 0 in 838 W/m2
13:39 79.5 °F 51.6 °F 30 in NNE 2 mph 7 mph 38% 0 in 837 W/m2
13:44 79.7 °F 53.2 °F 30 in WSW 0.9 mph 4 mph 40% 0 in 837 W/m2
13:49 79.9 °F 52 °F 30 in NW 0.9 mph 7 mph 38% 0 in 837 W/m2
13:54 79.7 °F 52.5 °F 30 in SW 0.9 mph 5 mph 39% 0 in 838 W/m2
13:59 79.7 °F 52.5 °F 30 in NE 2.9 mph 5 mph 39% 0 in 831 W/m2
14:04 79.7 °F 52.5 °F 30 in ENE 2 mph 4 mph 39% 0 in 837 W/m2
14:09 80.1 °F 52.9 °F 30 in ENE 2.9 mph 6 mph 39% 0 in 837 W/m2
14:14 80.4 °F 53.2 °F 30 in ENE 0.9 mph 4 mph 39% 0 in 837 W/m2
14:19 80.8 °F 52.9 °F 30 in NE 2 mph 4 mph 38% 0 in 835 W/m2
14:24 80.6 °F 52.7 °F 30 in NE 6 mph 7 mph 38% 0 in 842 W/m2
14:29 80.8 °F 52.2 °F 30 in NE 2 mph 4 mph 37% 0 in 821 W/m2
14:34 81.1 °F 52.3 °F 30 in Calm   4 mph 37% 0 in 831 W/m2
14:39 81.5 °F 52 °F 30 in ENE 2 mph 4 mph 36% 0 in 828 W/m2
14:44 81.3 °F 51.8 °F 30 in NE 4 mph 7 mph 36% 0 in 826 W/m2
14:49 81 °F 51.4 °F 30 in ENE 2.9 mph 3 mph 36% 0 in 823 W/m2
14:54 81.3 °F 51.8 °F 30 in ESE 2.9 mph 6 mph 36% 0 in 814 W/m2
14:59 81.7 °F 52.2 °F 30 in ENE 2.9 mph 5 mph 36% 0 in 810 W/m2
15:04 81.9 °F 51.4 °F 30 in East 2 mph 4 mph 35% 0 in 812 W/m2
15:09 82.2 °F 51.1 °F 30 in East 0.9 mph 6 mph 34% 0 in 805 W/m2
15:14 82.6 °F 50.5 °F 30 in ESE 0.9 mph 9 mph 33% 0 in 802 W/m2
15:19 82.8 °F 49.8 °F 30 in East 8.1 mph 9 mph 32% 0 in 793 W/m2
15:24 83.1 °F 49.3 °F 30 in ESE 2.9 mph 4 mph 31% 0 in 780 W/m2
15:29 83.5 °F 49.6 °F 30 in Calm   9 mph 31% 0 in 779 W/m2
15:34 83.5 °F 50.5 °F 30 in SE 2 mph 3 mph 32% 0 in 777 W/m2
15:39 83.5 °F 50.5 °F 30 in North 2 mph 9 mph 32% 0 in 772 W/m2
15:44 83.5 °F 48.7 °F 30 in NE 0.9 mph 4 mph 30% 0 in 763 W/m2
15:49 83.1 °F 49.3 °F 30 in ENE 6 mph 6 mph 31% 0 in 756 W/m2
15:54 83.3 °F 48.6 °F 30 in East 2 mph 4 mph 30% 0 in 745 W/m2
15:59 83.5 °F 49.6 °F 30 in East 4 mph 6 mph 31% 0 in 742 W/m2
16:04 83.7 °F 50.7 °F 30 in NE 2 mph 3 mph 32% 0 in 735 W/m2
16:09 84 °F 49.3 °F 30 in ESE 4 mph 7 mph 30% 0 in 722 W/m2
16:14 84.2 °F 48.6 °F 30 in Calm   3 mph 29% 0 in 717 W/m2
16:19 84.4 °F 48.7 °F 30 in ESE 0.9 mph 3 mph 29% 0 in 705 W/m2
16:24 84 °F 50.2 °F 30 in SSE 2.9 mph 3 mph 31% 0 in 694 W/m2
16:29 84.2 °F 49.5 °F 30 in ENE 0.9 mph 3 mph 30% 0 in 686 W/m2
16:34 84.6 °F 49.6 °F 30 in SE 0.9 mph 3 mph 30% 0 in 677 W/m2
16:39 84.6 °F 50.5 °F 30 in SE 2.9 mph 5 mph 31% 0 in 666 W/m2
16:45 84.6 °F 50.5 °F 30 in ENE 2.9 mph 3 mph 31% 0 in 661 W/m2
16:50 84.7 °F 50.7 °F 30 in NW 2.9 mph 3 mph 31% 0 in 654 W/m2
16:55 84.9 °F 48.2 °F 30 in NE 0.9 mph 9 mph 28% 0 in 642 W/m2
17:00 84.7 °F 48.9 °F 30 in NNW 2 mph 2 mph 29% 0 in 638 W/m2
17:05 84.9 °F 48.2 °F 30 in ENE 0.9 mph 9 mph 28% 0 in 619 W/m2
17:10 84.7 °F 48.9 °F 30 in East 4 mph 10 mph 29% 0 in 605 W/m2
17:15 84.4 °F 48.7 °F 30 in North 2 mph 3 mph 29% 0 in 587 W/m2
17:20 83.8 °F 48.2 °F 30 in NE 2.9 mph 8 mph 29% 0 in 568 W/m2
17:25 83.8 °F 49.1 °F 30 in NE 4 mph 8 mph 30% 0 in 554 W/m2
17:30 84.4 °F 52.2 °F 30 in East 0.9 mph 2 mph 33% 0 in 540 W/m2
17:35 85.1 °F 50.2 °F 30 in ESE 0.9 mph 8 mph 30% 0 in 529 W/m2
17:40 85.5 °F 50.5 °F 30 in ENE 0.9 mph 4 mph 30% 0 in 515 W/m2
17:45 85.5 °F 50.5 °F 30 in ESE 4 mph 6 mph 30% 0 in 503 W/m2
17:51 85.3 °F 50.4 °F 30 in ESE 4 mph 4 mph 30% 0 in 489 W/m2
17:56 84.7 °F 49.8 °F 30 in NW 2 mph 6 mph 30% 0 in 475 W/m2
18:01 84.9 °F 49.1 °F 30 in NNW 0.9 mph 1 mph 29% 0 in 462 W/m2
18:06 84.9 °F 50.9 °F 30 in NE 4 mph 6 mph 31% 0 in 446 W/m2
18:11 84.9 °F 51.8 °F 30 in ESE 2.9 mph 3 mph 32% 0 in 434 W/m2
18:16 84.7 °F 48.9 °F 30 in East 4 mph 5 mph 29% 0 in 424 W/m2
18:21 84.7 °F 49.8 °F 30 in WSW 0.9 mph 2 mph 30% 0 in 408 W/m2
18:26 84.7 °F 49.8 °F 30 in ENE 0.9 mph 2 mph 30% 0 in 394 W/m2
18:31 85.1 °F 49.3 °F 30 in ENE 0.9 mph 3 mph 29% 0 in 383 W/m2
18:36 84.7 °F 48.9 °F 30 in SW 0.9 mph 4 mph 29% 0 in 367 W/m2
18:41 84.4 °F 50.4 °F 30 in NE 2 mph 2 mph 31% 0 in 355 W/m2
18:46 84.6 °F 48.7 °F 30 in WSW 2 mph 3 mph 29% 0 in 343 W/m2
18:51 84.4 °F 49.6 °F 30 in Calm   2 mph 30% 0 in 316 W/m2
18:56 84.6 °F 48.7 °F 30 in Calm   2 mph 29% 0 in 290 W/m2
19:01 84.6 °F 49.6 °F 30 in East 2 mph 3 mph 30% 0 in 262 W/m2
19:06 84.7 °F 48.9 °F 30 in NE 0.9 mph 1 mph 29% 0 in 237 W/m2
19:12 84.7 °F 48.9 °F 30 in Calm   2 mph 29% 0 in 223 W/m2
19:17 84.9 °F 50 °F 30 in Calm     30% 0 in 200 W/m2
19:22 84.9 °F 49.1 °F 30 in East 0.9 mph 2 mph 29% 0 in 181 W/m2
19:27 84.7 °F 51.6 °F 30 in Calm   1 mph 32% 0 in 165 W/m2
19:32 84.6 °F 52.3 °F 30 in Calm     33% 0 in 163 W/m2
19:37 84.2 °F 52.7 °F 30 in Calm     34% 0 in 169 W/m2
19:42 83.7 °F 48.9 °F 30 in SSE 0.9 mph 3 mph 30% 0 in 171 W/m2
19:47 83.1 °F 50.2 °F 30 in East 0.9 mph 2 mph 32% 0 in 167 W/m2
19:52 82.8 °F 52.3 °F 30 in SE 0.9 mph 1 mph 35% 0 in 155 W/m2
19:57 82 °F 52.5 °F 30 in Calm     36% 0 in 141 W/m2
20:02 81.7 °F 52.9 °F 30 in South 0.9 mph 1 mph 37% 0 in 123 W/m2
20:07 81.3 °F 52.5 °F 30 in Calm     37% 0 in 95 W/m2
20:12 81.1 °F 52.3 °F 30 in Calm     37% 0 in 77 W/m2
20:17 81 °F 52.2 °F 30 in Calm     37% 0 in 60 W/m2
20:22 80.4 °F 53.2 °F 30 in Calm     39% 0 in 60 W/m2
20:27 79.9 °F 52.7 °F 30 in Calm     39% 0 in 30 W/m2
20:32 79 °F 53.2 °F 30 in Calm   1 mph 41% 0 in 19 W/m2
20:37 78.1 °F 53.1 °F 30 in South 0.9 mph 1 mph 42% 0 in 16 W/m2
20:42 77.2 °F 52.9 °F 30 in South 0.9 mph 1 mph 43% 0 in 16 W/m2
20:47 76.5 °F 52.9 °F 30 in Calm     44% 0 in 12 W/m2
20:52 75.7 °F 52.3 °F 30 in South 0.9 mph 1 mph 44% 0 in 11 W/m2
20:57 75 °F 51.6 °F 30 in Calm     44% 0 in 9 W/m2
21:02 74.5 °F 51.8 °F 30 in South 0.9 mph 1 mph 45% 0 in 7 W/m2
21:07 73.8 °F 51.6 °F 30 in Calm   1 mph 46% 0 in 5 W/m2
21:12 73 °F 51.6 °F 30 in South 0.9 mph 1 mph 47% 0 in 0 W/m2
21:17 72.7 °F 51.3 °F 30 in South 0.9 mph 2 mph 47% 0 in 0 W/m2
21:22 72 °F 50.7 °F 30 in South 0.9 mph 1 mph 47% 0 in 0 W/m2
21:27 71.6 °F 50.9 °F 30 in Calm     48% 0 in 0 W/m2
21:32 71.1 °F 50.4 °F 30 in Calm   1 mph 48% 0 in 0 W/m2
21:37 70.7 °F 51.1 °F 30 in South 0.9 mph 1 mph 50% 0 in 0 W/m2
21:42 70.3 °F 50.9 °F 30 in Calm   1 mph 50% 0 in 0 W/m2
21:47 70 °F 51.1 °F 30 in Calm     51% 0 in 0 W/m2
21:53 69.6 °F 50.2 °F 30 in Calm     50% 0 in 0 W/m2
21:58 69.4 °F 51.1 °F 30 in Calm     52% 0 in 0 W/m2
22:03 69.1 °F 50.7 °F 30 in Calm     52% 0 in 0 W/m2
22:08 68.5 °F 50.2 °F 30 in Calm     52% 0 in 0 W/m2
22:13 68.4 °F 50.5 °F 30 in Calm     53% 0 in 0 W/m2
22:18 68 °F 49.3 °F 30 in Calm     51% 0 in 0 W/m2
22:23 67.6 °F 49.8 °F 30 in Calm     53% 0 in 0 W/m2
22:28 67.5 °F 49.8 °F 30 in Calm     53% 0 in 0 W/m2
22:33 67.1 °F 49.8 °F 30 in Calm     54% 0 in 0 W/m2
22:38 66.7 °F 50 °F 30 in Calm     55% 0 in 0 W/m2
22:43 66.6 °F 50.4 °F 30 in Calm     56% 0 in 0 W/m2
22:48 66.4 °F 50.2 °F 30 in Calm     56% 0 in 0 W/m2
22:53 66.2 °F 50 °F 30 in Calm     56% 0 in 0 W/m2
22:58 65.8 °F 49.6 °F 30 in Calm     56% 0 in 0 W/m2
23:03 65.7 °F 50.5 °F 30 in Calm     58% 0 in 0 W/m2
23:08 65.5 °F 50.7 °F 30 in Calm     59% 0 in 0 W/m2
23:13 65.1 °F 50.9 °F 30 in Calm     60% 0 in 0 W/m2
23:18 64.9 °F 50.7 °F 30 in Calm     60% 0 in 0 W/m2
23:23 64.8 °F 51.1 °F 30 in Calm     61% 0 in 0 W/m2
23:28 64.6 °F 50.9 °F 30 in Calm     61% 0 in 0 W/m2
23:33 64.4 °F 51.1 °F 30 in Calm     62% 0 in 0 W/m2
23:38 64.2 °F 51.4 °F 30 in Calm     63% 0 in 0 W/m2
23:43 64 °F 51.3 °F 30 in Calm     63% 0 in 0 W/m2
23:48 63.9 °F 51.4 °F 30 in Calm     64% 0 in 0 W/m2
23:53 63.9 °F 51.1 °F 30 in Calm     63% 0 in 0 W/m2
23:58 63.7 °F 51.3 °F 30 in Calm     64% 0 in 0 W/m2
Juneau County Weather
Compliments of Weather Underground - 4 mb